West Chester, Ohio
Current Conditions -  °F | °C
As of 1:53 PM on Friday 21 Nov 2014 (Local Time) from KHAO Reporting Station
Clear Clear  
Wind Chill:   Ceiling: Unl
Heat Index:   Visibility: 10mi
Dew Point: -13°   Wind: 3mph
Humidity: 38%   Direction: 110°ESE
Pressure: 30.5"   Gusts: NA
Location:  39.33°N, 84.4°W
Report Text: KHAO 211853Z AUTO 11003KT 10SM CLR 00/M13 A3050 RMK AO2 SLP340 T00001128
Loading
Personal Weather Stations






























Interactive Weather Map New forecast layout! Learn more

10-Day Weather Forecast

Advertisements
Track Severe Weather on mobile